sensor_id;sensor_type;location;lat;lon;timestamp;pressure;altitude;pressure_sealevel;temperature;humidity
35507;BME280;36461;52.018;21.036;2024-02-26T00:02:29;99478.48;;;4.48;86.94
35507;BME280;36461;52.018;21.036;2024-02-26T00:04:57;99477.76;;;4.50;87.13
35507;BME280;36461;52.018;21.036;2024-02-26T00:07:25;99472.42;;;4.51;87.08
35507;BME280;36461;52.018;21.036;2024-02-26T00:09:53;99472.63;;;4.50;86.88
35507;BME280;36461;52.018;21.036;2024-02-26T00:12:22;99470.79;;;4.48;86.89
35507;BME280;36461;52.018;21.036;2024-02-26T00:14:50;99469.63;;;4.46;86.94
35507;BME280;36461;52.018;21.036;2024-02-26T00:17:20;99465.41;;;4.43;86.96
35507;BME280;36461;52.018;21.036;2024-02-26T00:19:50;99464.59;;;4.42;86.93
35507;BME280;36461;52.018;21.036;2024-02-26T00:22:18;99467.41;;;4.38;87.03
35507;BME280;36461;52.018;21.036;2024-02-26T00:24:46;99467.66;;;4.34;86.91
35507;BME280;36461;52.018;21.036;2024-02-26T00:27:16;99464.17;;;4.29;86.87
35507;BME280;36461;52.018;21.036;2024-02-26T00:29:44;99464.95;;;4.25;86.81
35507;BME280;36461;52.018;21.036;2024-02-26T00:32:12;99460.55;;;4.22;86.82
35507;BME280;36461;52.018;21.036;2024-02-26T00:34:41;99458.38;;;4.20;86.96
35507;BME280;36461;52.018;21.036;2024-02-26T00:37:09;99457.39;;;4.18;87.03
35507;BME280;36461;52.018;21.036;2024-02-26T00:39:38;99456.41;;;4.15;87.26
35507;BME280;36461;52.018;21.036;2024-02-26T00:42:07;99454.77;;;4.12;87.32
35507;BME280;36461;52.018;21.036;2024-02-26T00:44:36;99454.13;;;4.11;87.42
35507;BME280;36461;52.018;21.036;2024-02-26T00:47:04;99454.88;;;4.07;87.40
35507;BME280;36461;52.018;21.036;2024-02-26T00:49:32;99450.16;;;4.02;87.34
35507;BME280;36461;52.018;21.036;2024-02-26T00:52:01;99447.86;;;3.98;87.43
35507;BME280;36461;52.018;21.036;2024-02-26T00:54:33;99444.27;;;3.97;87.68
35507;BME280;36461;52.018;21.036;2024-02-26T00:57:04;99444.65;;;3.96;87.83
35507;BME280;36461;52.018;21.036;2024-02-26T00:59:34;99442.81;;;3.93;88.15
35507;BME280;36461;52.018;21.036;2024-02-26T01:02:06;99445.94;;;3.91;87.80
35507;BME280;36461;52.018;21.036;2024-02-26T01:04:37;99445.37;;;3.86;87.89
35507;BME280;36461;52.018;21.036;2024-02-26T01:07:08;99444.24;;;3.82;87.86
35507;BME280;36461;52.018;21.036;2024-02-26T01:09:40;99445.83;;;3.80;87.84
35507;BME280;36461;52.018;21.036;2024-02-26T01:16:57;99440.11;;;3.66;88.04
35507;BME280;36461;52.018;21.036;2024-02-26T01:19:28;99445.13;;;3.62;88.32
35507;BME280;36461;52.018;21.036;2024-02-26T01:22:00;99448.59;;;3.60;88.21
35507;BME280;36461;52.018;21.036;2024-02-26T01:24:32;99448.46;;;3.58;88.05
35507;BME280;36461;52.018;21.036;2024-02-26T01:27:03;99447.15;;;3.56;88.28
35507;BME280;36461;52.018;21.036;2024-02-26T01:29:38;99446.14;;;3.55;88.44
35507;BME280;36461;52.018;21.036;2024-02-26T01:32:09;99444.98;;;3.51;88.31
35507;BME280;36461;52.018;21.036;2024-02-26T01:34:42;99446.42;;;3.48;88.09
35507;BME280;36461;52.018;21.036;2024-02-26T01:37:12;99448.88;;;3.45;88.05
35507;BME280;36461;52.018;21.036;2024-02-26T01:39:43;99445.67;;;3.42;88.14
35507;BME280;36461;52.018;21.036;2024-02-26T01:42:14;99449.52;;;3.37;87.86
35507;BME280;36461;52.018;21.036;2024-02-26T01:44:44;99450.11;;;3.33;87.92
35507;BME280;36461;52.018;21.036;2024-02-26T01:47:15;99446.94;;;3.29;87.88
35507;BME280;36461;52.018;21.036;2024-02-26T01:57:19;99445.12;;;3.26;88.36
35507;BME280;36461;52.018;21.036;2024-02-26T01:59:48;99447.58;;;3.22;88.82
35507;BME280;36461;52.018;21.036;2024-02-26T02:02:16;99452.23;;;3.19;88.67
35507;BME280;36461;52.018;21.036;2024-02-26T02:04:44;99451.85;;;3.11;88.37
35507;BME280;36461;52.018;21.036;2024-02-26T02:07:12;99449.05;;;3.05;88.75
35507;BME280;36461;52.018;21.036;2024-02-26T02:09:41;99448.27;;;3.00;88.74
35507;BME280;36461;52.018;21.036;2024-02-26T02:12:09;99446.11;;;2.96;89.37
35507;BME280;36461;52.018;21.036;2024-02-26T02:14:37;99448.68;;;2.97;89.60
35507;BME280;36461;52.018;21.036;2024-02-26T02:17:05;99447.66;;;2.96;90.10
35507;BME280;36461;52.018;21.036;2024-02-26T02:19:33;99449.54;;;2.95;90.20
35507;BME280;36461;52.018;21.036;2024-02-26T02:22:01;99449.05;;;2.94;90.47
35507;BME280;36461;52.018;21.036;2024-02-26T02:24:29;99450.42;;;2.94;90.23
35507;BME280;36461;52.018;21.036;2024-02-26T02:26:57;99448.55;;;2.93;90.70
35507;BME280;36461;52.018;21.036;2024-02-26T02:29:26;99450.83;;;2.90;90.59
35507;BME280;36461;52.018;21.036;2024-02-26T02:31:55;99450.54;;;2.87;90.54
35507;BME280;36461;52.018;21.036;2024-02-26T02:34:24;99451.61;;;2.83;90.52
35507;BME280;36461;52.018;21.036;2024-02-26T02:36:53;99456.09;;;2.81;90.67
35507;BME280;36461;52.018;21.036;2024-02-26T02:39:22;99460.42;;;2.78;90.38
35507;BME280;36461;52.018;21.036;2024-02-26T02:41:50;99464.58;;;2.73;90.52
35507;BME280;36461;52.018;21.036;2024-02-26T02:44:18;99468.23;;;2.69;90.87
35507;BME280;36461;52.018;21.036;2024-02-26T02:46:46;99469.50;;;2.64;90.60
35507;BME280;36461;52.018;21.036;2024-02-26T02:49:14;99463.24;;;2.60;90.51
35507;BME280;36461;52.018;21.036;2024-02-26T02:51:42;99463.46;;;2.56;90.74
35507;BME280;36461;52.018;21.036;2024-02-26T02:54:11;99463.31;;;2.55;91.05
35507;BME280;36461;52.018;21.036;2024-02-26T02:56:39;99467.95;;;2.53;90.84
35507;BME280;36461;52.018;21.036;2024-02-26T02:59:07;99474.14;;;2.49;90.73
35507;BME280;36461;52.018;21.036;2024-02-26T03:01:35;99478.08;;;2.49;90.87
35507;BME280;36461;52.018;21.036;2024-02-26T03:04:03;99477.60;;;2.46;90.94
35507;BME280;36461;52.018;21.036;2024-02-26T03:06:31;99474.73;;;2.44;91.14
35507;BME280;36461;52.018;21.036;2024-02-26T03:08:59;99475.25;;;2.43;91.17
35507;BME280;36461;52.018;21.036;2024-02-26T03:11:28;99476.65;;;2.41;91.21
35507;BME280;36461;52.018;21.036;2024-02-26T03:13:57;99480.44;;;2.39;91.39
35507;BME280;36461;52.018;21.036;2024-02-26T03:16:25;99480.27;;;2.38;91.02
35507;BME280;36461;52.018;21.036;2024-02-26T03:18:53;99480.79;;;2.38;91.30
35507;BME280;36461;52.018;21.036;2024-02-26T03:21:21;99480.93;;;2.40;91.29
35507;BME280;36461;52.018;21.036;2024-02-26T03:23:49;99482.27;;;2.41;91.70
35507;BME280;36461;52.018;21.036;2024-02-26T03:26:17;99479.52;;;2.43;91.67
35507;BME280;36461;52.018;21.036;2024-02-26T03:28:45;99482.07;;;2.45;91.84
35507;BME280;36461;52.018;21.036;2024-02-26T03:31:13;99481.35;;;2.47;91.96
35507;BME280;36461;52.018;21.036;2024-02-26T03:33:41;99479.79;;;2.48;92.08
35507;BME280;36461;52.018;21.036;2024-02-26T03:36:09;99485.06;;;2.49;92.16
35507;BME280;36461;52.018;21.036;2024-02-26T03:38:37;99482.32;;;2.51;92.33
35507;BME280;36461;52.018;21.036;2024-02-26T03:41:05;99482.32;;;2.51;92.19
35507;BME280;36461;52.018;21.036;2024-02-26T03:43:33;99477.36;;;2.52;92.24
35507;BME280;36461;52.018;21.036;2024-02-26T03:46:02;99477.18;;;2.52;92.23
35507;BME280;36461;52.018;21.036;2024-02-26T03:48:30;99470.71;;;2.51;92.26
35507;BME280;36461;52.018;21.036;2024-02-26T03:50:58;99465.25;;;2.50;92.23
35507;BME280;36461;52.018;21.036;2024-02-26T03:53:26;99465.27;;;2.49;91.95
35507;BME280;36461;52.018;21.036;2024-02-26T03:55:54;99466.82;;;2.48;92.02
35507;BME280;36461;52.018;21.036;2024-02-26T03:58:22;99471.12;;;2.46;92.07
35507;BME280;36461;52.018;21.036;2024-02-26T04:00:50;99467.56;;;2.43;92.00
35507;BME280;36461;52.018;21.036;2024-02-26T04:03:19;99471.36;;;2.41;92.00
35507;BME280;36461;52.018;21.036;2024-02-26T04:05:47;99473.10;;;2.39;91.99
35507;BME280;36461;52.018;21.036;2024-02-26T04:08:15;99471.21;;;2.39;92.43
35507;BME280;36461;52.018;21.036;2024-02-26T04:10:43;99475.77;;;2.43;92.50
35507;BME280;36461;52.018;21.036;2024-02-26T04:13:11;99473.36;;;2.44;92.47
35507;BME280;36461;52.018;21.036;2024-02-26T04:15:39;99470.80;;;2.44;92.22
35507;BME280;36461;52.018;21.036;2024-02-26T04:18:07;99475.27;;;2.43;92.39
35507;BME280;36461;52.018;21.036;2024-02-26T04:20:35;99478.17;;;2.42;92.32
35507;BME280;36461;52.018;21.036;2024-02-26T04:23:04;99479.20;;;2.41;92.22
35507;BME280;36461;52.018;21.036;2024-02-26T04:25:32;99477.31;;;2.43;92.52
35507;BME280;36461;52.018;21.036;2024-02-26T04:28:00;99478.28;;;2.47;92.66
35507;BME280;36461;52.018;21.036;2024-02-26T04:30:28;99477.21;;;2.49;92.75
35507;BME280;36461;52.018;21.036;2024-02-26T04:32:56;99471.69;;;2.54;92.82
35507;BME280;36461;52.018;21.036;2024-02-26T04:35:24;99470.63;;;2.56;93.07
35507;BME280;36461;52.018;21.036;2024-02-26T04:37:52;99472.18;;;2.56;93.13
35507;BME280;36461;52.018;21.036;2024-02-26T04:40:20;99472.14;;;2.59;92.98
35507;BME280;36461;52.018;21.036;2024-02-26T04:42:48;99477.05;;;2.61;93.15
35507;BME280;36461;52.018;21.036;2024-02-26T04:45:16;99479.59;;;2.63;93.28
35507;BME280;36461;52.018;21.036;2024-02-26T04:47:43;99478.89;;;2.64;93.10
35507;BME280;36461;52.018;21.036;2024-02-26T04:50:12;99480.91;;;2.66;93.08
35507;BME280;36461;52.018;21.036;2024-02-26T04:52:40;99479.20;;;2.67;93.07
35507;BME280;36461;52.018;21.036;2024-02-26T04:55:09;99475.92;;;2.68;92.97
35507;BME280;36461;52.018;21.036;2024-02-26T04:57:37;99478.95;;;2.72;93.29
35507;BME280;36461;52.018;21.036;2024-02-26T05:00:06;99473.60;;;2.76;93.35
35507;BME280;36461;52.018;21.036;2024-02-26T05:02:35;99475.45;;;2.77;93.24
35507;BME280;36461;52.018;21.036;2024-02-26T05:05:06;99474.10;;;2.77;93.09
35507;BME280;36461;52.018;21.036;2024-02-26T05:07:40;99478.21;;;2.76;93.17
35507;BME280;36461;52.018;21.036;2024-02-26T05:10:09;99479.40;;;2.76;93.08
35507;BME280;36461;52.018;21.036;2024-02-26T05:12:37;99479.08;;;2.75;93.15
35507;BME280;36461;52.018;21.036;2024-02-26T05:15:07;99475.36;;;2.71;93.05
35507;BME280;36461;52.018;21.036;2024-02-26T05:17:35;99474.24;;;2.66;92.83
35507;BME280;36461;52.018;21.036;2024-02-26T05:20:03;99475.33;;;2.62;92.87
35507;BME280;36461;52.018;21.036;2024-02-26T05:22:32;99475.03;;;2.60;92.94
35507;BME280;36461;52.018;21.036;2024-02-26T05:25:00;99481.41;;;2.55;92.86
35507;BME280;36461;52.018;21.036;2024-02-26T05:27:28;99484.55;;;2.52;93.08
35507;BME280;36461;52.018;21.036;2024-02-26T05:29:56;99486.42;;;2.51;93.29
35507;BME280;36461;52.018;21.036;2024-02-26T05:32:24;99490.63;;;2.56;94.16
35507;BME280;36461;52.018;21.036;2024-02-26T05:34:52;99490.52;;;2.63;94.18
35507;BME280;36461;52.018;21.036;2024-02-26T05:37:21;99491.94;;;2.71;94.48
35507;BME280;36461;52.018;21.036;2024-02-26T05:39:49;99498.70;;;2.77;94.45
35507;BME280;36461;52.018;21.036;2024-02-26T05:42:17;99499.65;;;2.82;94.49
35507;BME280;36461;52.018;21.036;2024-02-26T05:44:45;99497.90;;;2.85;94.24
35507;BME280;36461;52.018;21.036;2024-02-26T05:47:13;99498.50;;;2.90;94.19
35507;BME280;36461;52.018;21.036;2024-02-26T05:49:41;99501.17;;;2.93;94.21
35507;BME280;36461;52.018;21.036;2024-02-26T05:52:09;99502.98;;;3.00;94.17
35507;BME280;36461;52.018;21.036;2024-02-26T05:54:37;99506.34;;;3.03;94.21
35507;BME280;36461;52.018;21.036;2024-02-26T05:57:05;99502.83;;;3.09;94.32
35507;BME280;36461;52.018;21.036;2024-02-26T05:59:33;99503.38;;;3.17;94.36
35507;BME280;36461;52.018;21.036;2024-02-26T06:02:01;99501.55;;;3.25;94.14
35507;BME280;36461;52.018;21.036;2024-02-26T06:04:29;99504.02;;;3.31;94.41
35507;BME280;36461;52.018;21.036;2024-02-26T06:06:57;99501.27;;;3.41;94.29
35507;BME280;36461;52.018;21.036;2024-02-26T06:09:26;99502.64;;;3.51;94.58
35507;BME280;36461;52.018;21.036;2024-02-26T06:11:53;99503.70;;;3.59;94.25
35507;BME280;36461;52.018;21.036;2024-02-26T06:14:22;99504.20;;;3.70;94.60
35507;BME280;36461;52.018;21.036;2024-02-26T06:16:51;99506.94;;;3.79;94.66
35507;BME280;36461;52.018;21.036;2024-02-26T06:19:19;99507.65;;;3.87;94.50
35507;BME280;36461;52.018;21.036;2024-02-26T06:21:47;99510.61;;;3.92;94.33
35507;BME280;36461;52.018;21.036;2024-02-26T06:24:15;99512.23;;;3.98;94.04
35507;BME280;36461;52.018;21.036;2024-02-26T06:28:52;99517.00;;;4.08;93.89
35507;BME280;36461;52.018;21.036;2024-02-26T06:31:18;99521.79;;;4.08;93.87
35507;BME280;36461;52.018;21.036;2024-02-26T06:33:45;99520.59;;;4.08;93.66
35507;BME280;36461;52.018;21.036;2024-02-26T06:36:12;99521.13;;;4.08;93.78
35507;BME280;36461;52.018;21.036;2024-02-26T06:38:39;99519.77;;;4.07;93.31
35507;BME280;36461;52.018;21.036;2024-02-26T06:41:05;99520.67;;;4.05;93.60
35507;BME280;36461;52.018;21.036;2024-02-26T06:43:32;99525.52;;;4.02;93.56
35507;BME280;36461;52.018;21.036;2024-02-26T06:45:59;99524.37;;;3.98;93.59
35507;BME280;36461;52.018;21.036;2024-02-26T06:48:26;99531.29;;;3.95;93.35
35507;BME280;36461;52.018;21.036;2024-02-26T06:50:52;99531.86;;;3.91;93.18
35507;BME280;36461;52.018;21.036;2024-02-26T06:53:20;99531.39;;;3.90;93.59
35507;BME280;36461;52.018;21.036;2024-02-26T06:55:46;99532.43;;;3.89;93.76
35507;BME280;36461;52.018;21.036;2024-02-26T06:58:13;99534.14;;;3.89;93.60
35507;BME280;36461;52.018;21.036;2024-02-26T07:00:40;99539.44;;;3.90;94.02
35507;BME280;36461;52.018;21.036;2024-02-26T07:03:08;99540.42;;;3.91;94.25
35507;BME280;36461;52.018;21.036;2024-02-26T07:05:35;99542.63;;;3.93;94.17
35507;BME280;36461;52.018;21.036;2024-02-26T07:08:02;99545.50;;;3.95;94.52
35507;BME280;36461;52.018;21.036;2024-02-26T07:10:29;99549.55;;;3.97;94.49
35507;BME280;36461;52.018;21.036;2024-02-26T07:12:56;99546.27;;;3.99;94.72
35507;BME280;36461;52.018;21.036;2024-02-26T07:15:23;99545.88;;;4.02;94.72
35507;BME280;36461;52.018;21.036;2024-02-26T07:17:50;99544.27;;;4.06;95.38
35507;BME280;36461;52.018;21.036;2024-02-26T07:20:17;99549.67;;;4.10;95.47
35507;BME280;36461;52.018;21.036;2024-02-26T07:22:45;99553.67;;;4.15;95.60
35507;BME280;36461;52.018;21.036;2024-02-26T07:25:12;99551.68;;;4.21;96.05
35507;BME280;36461;52.018;21.036;2024-02-26T07:27:40;99557.88;;;4.28;96.75
35507;BME280;36461;52.018;21.036;2024-02-26T07:30:07;99552.23;;;4.37;96.92
35507;BME280;36461;52.018;21.036;2024-02-26T07:32:37;99554.27;;;4.45;97.33
35507;BME280;36461;52.018;21.036;2024-02-26T07:35:05;99555.14;;;4.53;97.96
35507;BME280;36461;52.018;21.036;2024-02-26T07:37:33;99551.90;;;4.61;98.12
35507;BME280;36461;52.018;21.036;2024-02-26T07:40:00;99555.13;;;4.71;98.66
35507;BME280;36461;52.018;21.036;2024-02-26T07:42:28;99555.27;;;4.79;99.01
35507;BME280;36461;52.018;21.036;2024-02-26T07:44:55;99558.70;;;4.88;99.22
35507;BME280;36461;52.018;21.036;2024-02-26T07:47:22;99560.07;;;4.96;99.50
35507;BME280;36461;52.018;21.036;2024-02-26T07:49:49;99563.51;;;5.03;99.73
35507;BME280;36461;52.018;21.036;2024-02-26T07:52:17;99561.92;;;5.12;99.88
35507;BME280;36461;52.018;21.036;2024-02-26T07:54:45;99561.92;;;5.27;100.00
35507;BME280;36461;52.018;21.036;2024-02-26T07:57:12;99560.27;;;5.39;100.00
35507;BME280;36461;52.018;21.036;2024-02-26T07:59:42;99567.37;;;5.50;100.00
35507;BME280;36461;52.018;21.036;2024-02-26T08:02:09;99570.35;;;5.62;100.00
35507;BME280;36461;52.018;21.036;2024-02-26T08:04:36;99571.10;;;5.73;100.00
35507;BME280;36461;52.018;21.036;2024-02-26T08:07:03;99569.95;;;5.84;100.00
35507;BME280;36461;52.018;21.036;2024-02-26T08:09:31;99571.52;;;5.98;100.00
35507;BME280;36461;52.018;21.036;2024-02-26T08:11:58;99571.42;;;6.08;100.00
35507;BME280;36461;52.018;21.036;2024-02-26T08:14:25;99565.99;;;6.18;100.00
35507;BME280;36461;52.018;21.036;2024-02-26T08:16:52;99564.98;;;6.30;100.00
35507;BME280;36461;52.018;21.036;2024-02-26T08:19:19;99565.72;;;6.41;100.00
35507;BME280;36461;52.018;21.036;2024-02-26T08:21:46;99565.48;;;6.49;100.00
35507;BME280;36461;52.018;21.036;2024-02-26T08:24:13;99570.84;;;6.60;100.00
35507;BME280;36461;52.018;21.036;2024-02-26T08:26:40;99575.41;;;6.68;100.00
35507;BME280;36461;52.018;21.036;2024-02-26T08:29:07;99574.48;;;6.82;100.00
35507;BME280;36461;52.018;21.036;2024-02-26T08:31:34;99575.96;;;6.97;100.00
35507;BME280;36461;52.018;21.036;2024-02-26T08:34:04;99577.45;;;7.15;100.00
35507;BME280;36461;52.018;21.036;2024-02-26T08:36:34;99576.48;;;7.41;100.00
35507;BME280;36461;52.018;21.036;2024-02-26T08:39:03;99577.89;;;7.77;100.00
35507;BME280;36461;52.018;21.036;2024-02-26T08:41:31;99577.29;;;8.10;100.00
35507;BME280;36461;52.018;21.036;2024-02-26T08:43:58;99576.38;;;8.40;100.00
35507;BME280;36461;52.018;21.036;2024-02-26T08:46:25;99574.91;;;8.67;100.00
35507;BME280;36461;52.018;21.036;2024-02-26T08:48:52;99574.71;;;8.91;100.00
35507;BME280;36461;52.018;21.036;2024-02-26T08:51:20;99575.95;;;9.12;100.00
35507;BME280;36461;52.018;21.036;2024-02-26T08:53:47;99578.09;;;9.28;100.00
35507;BME280;36461;52.018;21.036;2024-02-26T08:56:15;99581.12;;;9.43;100.00
35507;BME280;36461;52.018;21.036;2024-02-26T08:58:44;99580.08;;;9.60;100.00
35507;BME280;36461;52.018;21.036;2024-02-26T09:01:11;99582.98;;;9.82;100.00
35507;BME280;36461;52.018;21.036;2024-02-26T09:03:37;99577.70;;;10.05;100.00
35507;BME280;36461;52.018;21.036;2024-02-26T09:06:04;99572.11;;;10.26;100.00
35507;BME280;36461;52.018;21.036;2024-02-26T09:08:33;99578.10;;;10.44;100.00
35507;BME280;36461;52.018;21.036;2024-02-26T09:11:00;99572.55;;;10.64;99.88
35507;BME280;36461;52.018;21.036;2024-02-26T09:13:26;99575.94;;;10.85;99.46
35507;BME280;36461;52.018;21.036;2024-02-26T09:15:53;99576.08;;;10.96;98.26
35507;BME280;36461;52.018;21.036;2024-02-26T09:18:21;99581.57;;;11.09;97.99
35507;BME280;36461;52.018;21.036;2024-02-26T09:20:47;99584.25;;;11.21;97.54
35507;BME280;36461;52.018;21.036;2024-02-26T09:23:14;99585.36;;;11.31;96.59
35507;BME280;36461;52.018;21.036;2024-02-26T09:25:41;99582.80;;;11.37;95.73
35507;BME280;36461;52.018;21.036;2024-02-26T09:28:07;99583.11;;;11.45;95.37
35507;BME280;36461;52.018;21.036;2024-02-26T09:30:34;99583.72;;;11.54;94.92
35507;BME280;36461;52.018;21.036;2024-02-26T09:33:01;99581.37;;;11.59;94.49
35507;BME280;36461;52.018;21.036;2024-02-26T09:35:28;99583.52;;;11.62;93.83
35507;BME280;36461;52.018;21.036;2024-02-26T09:37:55;99590.89;;;11.60;93.43
35507;BME280;36461;52.018;21.036;2024-02-26T09:40:22;99593.66;;;11.60;93.23
35507;BME280;36461;52.018;21.036;2024-02-26T09:42:53;99593.87;;;11.52;92.55
35507;BME280;36461;52.018;21.036;2024-02-26T09:45:25;99602.55;;;11.48;92.31
35507;BME280;36461;52.018;21.036;2024-02-26T09:47:55;99606.44;;;11.39;91.65
35507;BME280;36461;52.018;21.036;2024-02-26T09:50:23;99608.80;;;11.33;91.96
35507;BME280;36461;52.018;21.036;2024-02-26T09:52:51;99607.70;;;11.31;91.43
35507;BME280;36461;52.018;21.036;2024-02-26T09:55:19;99610.13;;;11.31;91.62
35507;BME280;36461;52.018;21.036;2024-02-26T09:57:46;99608.57;;;11.35;91.57
35507;BME280;36461;52.018;21.036;2024-02-26T10:00:21;99608.83;;;11.40;91.56
35507;BME280;36461;52.018;21.036;2024-02-26T10:02:48;99608.35;;;11.47;91.37
35507;BME280;36461;52.018;21.036;2024-02-26T10:05:19;99610.05;;;11.47;90.98
35507;BME280;36461;52.018;21.036;2024-02-26T10:07:46;99606.91;;;11.40;90.29
35507;BME280;36461;52.018;21.036;2024-02-26T10:10:14;99606.70;;;11.37;90.64
35507;BME280;36461;52.018;21.036;2024-02-26T10:12:41;99608.17;;;11.39;90.53
35507;BME280;36461;52.018;21.036;2024-02-26T10:15:08;99600.31;;;11.37;90.10
35507;BME280;36461;52.018;21.036;2024-02-26T10:17:35;99600.70;;;11.40;89.95
35507;BME280;36461;52.018;21.036;2024-02-26T10:20:15;99598.17;;;11.46;90.10
35507;BME280;36461;52.018;21.036;2024-02-26T10:22:46;99601.20;;;11.51;90.02
35507;BME280;36461;52.018;21.036;2024-02-26T10:25:13;99606.49;;;11.56;90.02
35507;BME280;36461;52.018;21.036;2024-02-26T10:27:41;99607.24;;;11.58;89.90
35507;BME280;36461;52.018;21.036;2024-02-26T10:30:19;99608.20;;;11.64;89.84
35507;BME280;36461;52.018;21.036;2024-02-26T10:32:48;99607.20;;;11.77;89.67
35507;BME280;36461;52.018;21.036;2024-02-26T10:35:16;99609.71;;;11.93;89.43
35507;BME280;36461;52.018;21.036;2024-02-26T10:37:44;99605.28;;;12.03;88.70
35507;BME280;36461;52.018;21.036;2024-02-26T10:40:12;99606.10;;;12.17;88.80
35507;BME280;36461;52.018;21.036;2024-02-26T10:42:40;99607.48;;;12.31;88.18
35507;BME280;36461;52.018;21.036;2024-02-26T10:45:09;99602.92;;;12.48;87.98
35507;BME280;36461;52.018;21.036;2024-02-26T10:47:36;99600.84;;;12.62;87.11
35507;BME280;36461;52.018;21.036;2024-02-26T10:50:05;99600.42;;;12.66;85.97
35507;BME280;36461;52.018;21.036;2024-02-26T10:52:34;99589.23;;;12.68;85.99
35507;BME280;36461;52.018;21.036;2024-02-26T10:55:02;99588.31;;;12.65;85.45
35507;BME280;36461;52.018;21.036;2024-02-26T10:57:34;99587.25;;;12.60;85.01
35507;BME280;36461;52.018;21.036;2024-02-26T11:00:04;99589.67;;;12.53;85.09
35507;BME280;36461;52.018;21.036;2024-02-26T11:02:33;99588.27;;;12.50;84.79
35507;BME280;36461;52.018;21.036;2024-02-26T11:05:03;99585.75;;;12.68;85.28
35507;BME280;36461;52.018;21.036;2024-02-26T11:07:31;99588.36;;;12.90;84.25
35507;BME280;36461;52.018;21.036;2024-02-26T11:10:00;99584.09;;;13.02;84.36
35507;BME280;36461;52.018;21.036;2024-02-26T11:12:28;99583.39;;;13.21;84.11
35507;BME280;36461;52.018;21.036;2024-02-26T11:14:56;99584.16;;;13.29;83.48
35507;BME280;36461;52.018;21.036;2024-02-26T11:17:27;99584.61;;;13.27;82.94
35507;BME280;36461;52.018;21.036;2024-02-26T11:19:59;99582.16;;;13.27;82.89
35507;BME280;36461;52.018;21.036;2024-02-26T11:22:26;99576.82;;;13.20;82.48
35507;BME280;36461;52.018;21.036;2024-02-26T11:24:55;99570.60;;;13.04;81.88
35507;BME280;36461;52.018;21.036;2024-02-26T11:27:27;99572.13;;;12.89;82.07
35507;BME280;36461;52.018;21.036;2024-02-26T11:29:58;99573.25;;;12.81;82.08
35507;BME280;36461;52.018;21.036;2024-02-26T11:32:27;99577.71;;;12.75;81.83
35507;BME280;36461;52.018;21.036;2024-02-26T11:34:57;99580.02;;;12.74;82.27
35507;BME280;36461;52.018;21.036;2024-02-26T11:37:25;99579.86;;;12.81;81.86
35507;BME280;36461;52.018;21.036;2024-02-26T11:39:52;99575.11;;;12.75;81.29
35507;BME280;36461;52.018;21.036;2024-02-26T11:42:22;99572.13;;;12.67;81.26
35507;BME280;36461;52.018;21.036;2024-02-26T11:44:49;99572.88;;;12.58;81.23
35507;BME280;36461;52.018;21.036;2024-02-26T11:47:23;99573.91;;;12.59;81.49
35507;BME280;36461;52.018;21.036;2024-02-26T11:49:50;99575.41;;;12.56;81.13
35507;BME280;36461;52.018;21.036;2024-02-26T11:52:17;99577.25;;;12.51;81.21
35507;BME280;36461;52.018;21.036;2024-02-26T11:54:54;99571.98;;;12.53;81.38
35507;BME280;36461;52.018;21.036;2024-02-26T12:00:03;99567.52;;;12.45;81.31
35507;BME280;36461;52.018;21.036;2024-02-26T12:02:44;99567.59;;;12.41;81.23
35507;BME280;36461;52.018;21.036;2024-02-26T12:05:15;99568.67;;;12.40;81.28
35507;BME280;36461;52.018;21.036;2024-02-26T12:07:48;99566.45;;;12.42;81.40
35507;BME280;36461;52.018;21.036;2024-02-26T12:10:28;99561.98;;;12.48;81.47
35507;BME280;36461;52.018;21.036;2024-02-26T12:13:00;99556.55;;;12.55;81.57
35507;BME280;36461;52.018;21.036;2024-02-26T12:16:21;99559.06;;;12.64;81.44
35507;BME280;36461;52.018;21.036;2024-02-26T12:18:20;99560.86;;;12.69;81.01
35507;BME280;36461;52.018;21.036;2024-02-26T12:21:01;99559.66;;;12.69;80.49
35507;BME280;36461;52.018;21.036;2024-02-26T12:23:28;99557.38;;;12.69;80.24
35507;BME280;36461;52.018;21.036;2024-02-26T12:25:59;99560.34;;;12.75;80.42
35507;BME280;36461;52.018;21.036;2024-02-26T12:28:29;99559.54;;;12.84;80.38
35507;BME280;36461;52.018;21.036;2024-02-26T12:30:57;99566.85;;;12.87;80.16
35507;BME280;36461;52.018;21.036;2024-02-26T12:33:26;99563.03;;;12.87;79.75
35507;BME280;36461;52.018;21.036;2024-02-26T12:35:54;99565.38;;;12.88;79.71
35507;BME280;36461;52.018;21.036;2024-02-26T12:38:21;99568.14;;;12.91;79.27
35507;BME280;36461;52.018;21.036;2024-02-26T12:40:48;99563.77;;;12.92;79.41
35507;BME280;36461;52.018;21.036;2024-02-26T12:43:16;99566.58;;;12.89;78.33
35507;BME280;36461;52.018;21.036;2024-02-26T12:45:43;99563.02;;;12.87;78.52
35507;BME280;36461;52.018;21.036;2024-02-26T12:48:13;99564.58;;;12.87;78.66
35507;BME280;36461;52.018;21.036;2024-02-26T12:50:45;99561.98;;;12.87;78.54
35507;BME280;36461;52.018;21.036;2024-02-26T12:53:13;99565.06;;;12.84;77.94
35507;BME280;36461;52.018;21.036;2024-02-26T12:55:40;99565.81;;;12.84;78.16
35507;BME280;36461;52.018;21.036;2024-02-26T12:58:08;99568.92;;;12.84;77.81
35507;BME280;36461;52.018;21.036;2024-02-26T13:00:36;99568.27;;;12.89;78.05
35507;BME280;36461;52.018;21.036;2024-02-26T13:03:03;99576.99;;;13.01;77.96
35507;BME280;36461;52.018;21.036;2024-02-26T13:05:31;99577.25;;;13.09;77.26
35507;BME280;36461;52.018;21.036;2024-02-26T13:07:59;99570.86;;;13.18;77.56
35507;BME280;36461;52.018;21.036;2024-02-26T13:10:26;99570.33;;;13.31;76.86
35507;BME280;36461;52.018;21.036;2024-02-26T13:12:53;99571.44;;;13.39;77.24
35507;BME280;36461;52.018;21.036;2024-02-26T13:15:21;99570.79;;;13.45;77.28
35507;BME280;36461;52.018;21.036;2024-02-26T13:17:48;99568.02;;;13.47;76.96
35507;BME280;36461;52.018;21.036;2024-02-26T13:20:29;99571.84;;;13.51;76.78